Time;durP1;ratioP1;P1;durP2;ratioP2;P2;SDS_P1;SDS_P2;PMS_P1;PMS_P2;Temp;Humidity;BMP_temperature;BMP_pressure;BME280_temperature;BME280_humidity;BME280_pressure;Samples;Min_cycle;Max_cycle;Signal;HPM_P1;HPM_P2
2022/05/12 00:00:30;;;;;;;3.72;3.30;;;22.30;89.70;;;;;;5134376;28;20496;-70
2022/05/12 00:02:57;;;;;;;5.75;3.13;;;22.30;89.30;;;;;;5134917;28;20196;-71
2022/05/12 00:05:23;;;;;;;3.38;3.00;;;22.30;88.20;;;;;;5133995;28;20217;-70
2022/05/12 00:07:50;;;;;;;3.30;3.00;;;22.40;87.10;;;;;;5134269;28;20181;-70
2022/05/12 00:10:20;;;;;;;3.22;2.85;;;22.60;86.40;;;;;;5116306;28;20228;-68
2022/05/12 00:12:46;;;;;;;4.40;2.97;;;22.40;87.00;;;;;;5134640;28;20259;-69
2022/05/12 00:15:18;;;;;;;6.35;3.38;;;22.40;86.90;;;;;;5134218;28;20640;-70
2022/05/12 00:17:44;;;;;;;3.88;3.03;;;22.40;86.00;;;;;;5135930;28;20210;-70
2022/05/12 00:20:15;;;;;;;4.25;2.97;;;22.30;85.60;;;;;;5138310;28;20153;-70
2022/05/12 00:22:40;;;;;;;3.20;2.83;;;22.30;85.30;;;;;;5138476;28;20530;-70
2022/05/12 00:25:14;;;;;;;2.97;2.67;;;22.40;84.40;;;;;;5137704;28;20169;-69
2022/05/12 00:27:40;;;;;;;4.85;2.80;;;22.40;83.30;;;;;;5137531;28;20161;-71
2022/05/12 00:30:09;;;;;;;3.58;3.08;;;22.40;82.60;;;;;;5139039;28;20193;-68
2022/05/12 00:32:37;;;;;;;4.38;2.92;;;22.40;82.40;;;;;;5138130;28;20172;-70
2022/05/12 00:35:04;;;;;;;6.38;2.95;;;22.50;81.00;;;;;;5119466;28;20165;-70
2022/05/12 00:37:30;;;;;;;6.65;2.90;;;22.60;79.80;;;;;;5137029;28;20158;-70
2022/05/12 00:39:56;;;;;;;2.60;2.30;;;22.70;78.60;;;;;;5119941;28;20173;-70
2022/05/12 00:42:22;;;;;;;6.00;2.67;;;22.70;77.80;;;;;;5135347;27;20189;-70
2022/05/12 00:44:48;;;;;;;4.22;2.65;;;22.70;77.00;;;;;;5141247;27;20161;-69
2022/05/12 00:47:13;;;;;;;6.43;2.65;;;22.70;77.00;;;;;;5140336;27;20170;-70
2022/05/12 00:49:41;;;;;;;7.57;2.97;;;22.60;76.70;;;;;;5139821;27;20158;-69
2022/05/12 00:52:12;;;;;;;5.97;2.53;;;22.60;77.50;;;;;;5138516;27;20196;-70
2022/05/12 00:54:49;;;;;;;2.90;2.60;;;22.50;77.90;;;;;;5138141;27;20630;-70
2022/05/12 00:57:20;;;;;;;3.42;2.30;;;22.60;76.60;;;;;;5138054;27;20229;-69
2022/05/12 00:59:46;;;;;;;4.47;2.50;;;22.70;75.60;;;;;;5137540;27;20158;-70
2022/05/12 01:02:19;;;;;;;13.00;2.58;;;22.70;75.30;;;;;;5137782;27;20280;-69
2022/05/12 01:04:50;;;;;;;9.82;2.70;;;22.60;75.20;;;;;;5136820;27;20197;-69
2022/05/12 01:07:16;;;;;;;3.95;2.22;;;22.70;74.90;;;;;;5137078;27;20169;-69
2022/05/12 01:09:42;;;;;;;4.38;2.42;;;22.70;74.60;;;;;;5137231;27;20187;-71
2022/05/12 01:12:08;;;;;;;4.30;2.63;;;22.60;74.60;;;;;;5138031;27;20166;-70
2022/05/12 01:14:34;;;;;;;2.88;2.28;;;22.60;75.30;;;;;;5137166;27;20162;-68
2022/05/12 01:17:01;;;;;;;3.38;2.47;;;22.60;74.50;;;;;;5137571;27;20562;-70
2022/05/12 01:19:36;;;;;;;3.90;2.40;;;22.50;74.60;;;;;;5137366;27;20158;-70
2022/05/12 01:22:03;;;;;;;6.45;2.70;;;22.60;74.50;;;;;;5137019;27;20249;-69
2022/05/12 01:24:39;;;;;;;4.53;2.50;;;22.50;74.50;;;;;;5120826;27;20185;-69
2022/05/12 01:27:20;;;;;;;3.78;2.63;;;22.50;74.90;;;;;;5122009;27;20165;-71
2022/05/12 01:29:55;;;;;;;5.10;2.40;;;22.50;75.00;;;;;;5143721;27;20172;-70
2022/05/12 01:32:24;;;;;;;5.75;3.17;;;22.40;74.70;;;;;;5143171;27;20169;-70
2022/05/12 01:34:52;;;;;;;4.97;2.65;;;22.40;75.00;;;;;;5124813;27;20182;-70
2022/05/12 01:37:18;;;;;;;3.15;2.33;;;22.40;75.10;;;;;;5151752;27;20153;-70
2022/05/12 01:39:44;;;;;;;5.05;2.50;;;22.30;75.50;;;;;;5147495;27;20585;-70
2022/05/12 01:42:10;;;;;;;3.10;2.53;;;22.20;75.40;;;;;;5139479;27;20158;-70
2022/05/12 01:44:37;;;;;;;3.38;2.50;;;22.20;75.40;;;;;;5137175;27;20661;-72
2022/05/12 01:47:04;;;;;;;4.57;2.83;;;22.20;75.20;;;;;;5136513;27;20195;-71
2022/05/12 01:49:29;;;;;;;6.07;2.75;;;22.20;75.50;;;;;;5136805;27;20230;-69
2022/05/12 01:51:57;;;;;;;3.28;2.40;;;22.20;75.10;;;;;;5136011;27;20197;-70
2022/05/12 01:54:24;;;;;;;4.78;2.60;;;22.20;75.10;;;;;;5136317;27;20596;-71
2022/05/12 01:56:50;;;;;;;2.60;2.30;;;22.20;75.10;;;;;;5136214;27;20191;-69
2022/05/12 01:59:18;;;;;;;5.97;2.53;;;22.10;75.80;;;;;;5136236;27;20170;-69
2022/05/12 02:01:44;;;;;;;3.72;2.20;;;22.10;75.70;;;;;;5136875;27;20166;-70
2022/05/12 02:04:10;;;;;;;3.22;2.30;;;22.10;75.00;;;;;;5136434;27;20629;-70
2022/05/12 02:06:36;;;;;;;4.35;2.70;;;22.20;74.50;;;;;;5136373;27;20213;-70
2022/05/12 02:09:02;;;;;;;3.25;2.42;;;22.10;74.50;;;;;;5136331;27;20153;-71
2022/05/12 02:11:28;;;;;;;3.30;2.70;;;22.10;75.00;;;;;;5135625;27;20189;-71
2022/05/12 02:13:54;;;;;;;3.22;2.20;;;22.00;75.50;;;;;;5136118;27;20188;-71
2022/05/12 02:16:19;;;;;;;3.90;2.58;;;22.00;75.60;;;;;;5140575;27;20238;-70
2022/05/12 02:18:45;;;;;;;4.00;2.60;;;21.90;75.70;;;;;;5140069;27;20170;-70
2022/05/12 02:21:10;;;;;;;6.25;2.50;;;21.90;75.90;;;;;;5135630;27;20177;-70
2022/05/12 02:23:36;;;;;;;6.97;2.72;;;21.90;76.10;;;;;;5136405;27;20661;-70
2022/05/12 02:26:03;;;;;;;4.35;2.50;;;21.90;76.30;;;;;;5136542;27;20581;-69
2022/05/12 02:28:29;;;;;;;6.60;2.40;;;21.90;76.40;;;;;;5136075;27;20187;-70
2022/05/12 02:30:54;;;;;;;4.40;2.30;;;22.00;75.90;;;;;;5135900;27;20197;-71
2022/05/12 02:33:21;;;;;;;5.97;4.22;;;22.10;75.10;;;;;;5118744;27;20268;-70
2022/05/12 02:35:48;;;;;;;4.22;2.33;;;22.10;75.00;;;;;;5136652;27;20158;-70
2022/05/12 02:38:14;;;;;;;2.83;2.47;;;22.10;75.30;;;;;;5135871;27;20225;-71
2022/05/12 02:40:40;;;;;;;2.58;2.38;;;22.10;75.40;;;;;;5136074;27;20169;-71
2022/05/12 02:43:24;;;;;;;4.20;2.90;;;22.10;75.60;;;;;;5119359;27;20178;-71
2022/05/12 02:46:05;;;;;;;4.10;2.60;;;22.10;75.60;;;;;;5141999;27;20207;-73
2022/05/12 02:48:37;;;;;;;3.15;2.35;;;22.10;75.40;;;;;;5137294;27;20664;-71
2022/05/12 02:51:03;;;;;;;2.47;2.28;;;22.10;75.40;;;;;;5135407;27;20640;-69
2022/05/12 02:53:31;;;;;;;2.15;1.95;;;22.10;75.40;;;;;;5136051;27;20597;-70
2022/05/12 02:55:59;;;;;;;2.63;2.40;;;22.10;75.00;;;;;;5135508;27;20257;-71
2022/05/12 02:58:25;;;;;;;3.00;2.30;;;22.10;75.30;;;;;;5135056;27;20149;-71
2022/05/12 03:00:52;;;;;;;2.60;2.28;;;22.00;75.50;;;;;;5135189;27;20196;-72
2022/05/12 03:03:17;;;;;;;9.55;2.70;;;22.00;75.90;;;;;;5135371;27;20165;-71
2022/05/12 03:05:43;;;;;;;2.75;2.47;;;21.90;76.10;;;;;;5135034;27;20656;-71
2022/05/12 03:08:09;;;;;;;5.35;2.35;;;21.90;76.90;;;;;;5117132;27;20234;-70
2022/05/12 03:10:36;;;;;;;4.20;2.33;;;21.80;76.70;;;;;;5135324;27;20603;-71
2022/05/12 03:13:02;;;;;;;5.85;2.90;;;21.90;76.20;;;;;;5135195;27;20240;-71
2022/05/12 03:15:28;;;;;;;5.35;2.40;;;21.90;76.90;;;;;;5135177;27;20164;-72
2022/05/12 03:17:54;;;;;;;2.90;2.40;;;21.80;76.90;;;;;;5135286;27;20158;-73
2022/05/12 03:20:22;;;;;;;2.55;2.35;;;21.70;77.10;;;;;;5135224;27;20170;-71
2022/05/12 03:22:48;;;;;;;6.03;2.47;;;21.70;77.20;;;;;;5134834;27;20162;-71
2022/05/12 03:25:16;;;;;;;3.00;2.47;;;21.70;78.00;;;;;;5135620;27;20245;-71
2022/05/12 03:27:42;;;;;;;4.05;2.50;;;21.60;77.90;;;;;;5135394;27;20165;-71
2022/05/12 03:30:11;;;;;;;2.47;2.15;;;21.60;77.90;;;;;;5136918;27;20216;-71
2022/05/12 03:32:37;;;;;;;6.25;2.45;;;21.60;78.40;;;;;;5139454;27;20218;-70
2022/05/12 03:35:04;;;;;;;2.58;2.00;;;21.50;79.10;;;;;;5127986;27;20268;-71
2022/05/12 03:37:29;;;;;;;2.63;2.15;;;21.50;78.30;;;;;;5145681;27;20165;-70
2022/05/12 03:39:55;;;;;;;4.65;2.53;;;21.70;78.00;;;;;;5147159;27;20184;-69
2022/05/12 03:42:21;;;;;;;2.85;2.22;;;21.60;78.40;;;;;;5142701;27;20181;-73
2022/05/12 03:44:46;;;;;;;6.32;2.60;;;21.50;79.00;;;;;;5135041;28;20161;-70
2022/05/12 03:47:14;;;;;;;2.70;2.25;;;21.50;79.30;;;;;;5135112;28;20166;-70
2022/05/12 03:49:43;;;;;;;9.77;2.60;;;21.40;79.20;;;;;;5116851;28;20188;-70
2022/05/12 03:52:08;;;;;;;5.10;2.47;;;21.50;79.40;;;;;;5135151;28;20191;-72
2022/05/12 03:54:34;;;;;;;4.70;2.55;;;21.40;80.00;;;;;;5135014;28;20577;-72
2022/05/12 03:57:02;;;;;;;3.70;2.20;;;21.40;80.40;;;;;;5118398;28;20185;-70
2022/05/12 03:59:28;;;;;;;2.67;2.25;;;21.30;80.50;;;;;;5117415;28;20168;-71
2022/05/12 04:01:54;;;;;;;7.53;2.38;;;21.40;80.40;;;;;;5135045;28;20173;-70
2022/05/12 04:04:20;;;;;;;2.92;2.20;;;21.40;81.30;;;;;;5116555;28;20640;-70
2022/05/12 04:06:45;;;;;;;3.45;2.30;;;21.30;81.90;;;;;;5133961;28;20221;-69
2022/05/12 04:09:11;;;;;;;3.28;2.60;;;21.30;82.00;;;;;;5134148;28;20238;-71
2022/05/12 04:11:36;;;;;;;4.10;2.22;;;21.30;82.10;;;;;;5134611;28;20250;-71
2022/05/12 04:14:04;;;;;;;3.78;2.47;;;21.30;82.40;;;;;;5135009;28;20201;-69
2022/05/12 04:16:31;;;;;;;5.95;2.50;;;21.30;82.90;;;;;;5135142;27;20153;-72
2022/05/12 04:18:57;;;;;;;4.18;2.38;;;21.30;82.40;;;;;;5139099;27;20154;-69
2022/05/12 04:21:23;;;;;;;4.00;2.15;;;21.40;82.10;;;;;;5150854;27;20165;-69
2022/05/12 04:23:48;;;;;;;4.28;2.47;;;21.40;82.10;;;;;;5152621;27;20497;-70
2022/05/12 04:26:14;;;;;;;6.13;2.88;;;21.40;82.50;;;;;;5138793;27;20165;-69
2022/05/12 04:28:39;;;;;;;2.90;2.55;;;21.40;82.70;;;;;;5138188;27;20177;-71
2022/05/12 04:31:05;;;;;;;7.30;2.60;;;21.40;83.00;;;;;;5137685;27;20597;-70
2022/05/12 04:36:15;;;;;;;4.15;2.05;;;21.30;84.80;;;;;;5137999;27;20172;-69
2022/05/12 04:38:41;;;;;;;4.07;2.30;;;21.30;85.80;;;;;;5142263;27;20158;-69
2022/05/12 04:41:08;;;;;;;3.80;1.95;;;21.30;84.80;;;;;;5145870;27;20564;-69
2022/05/12 04:43:34;;;;;;;5.20;2.50;;;21.30;85.80;;;;;;5127458;27;20174;-68
2022/05/12 04:46:00;;;;;;;6.32;2.60;;;21.30;85.40;;;;;;5147960;27;20170;-69
2022/05/12 04:48:29;;;;;;;6.65;2.28;;;21.10;86.90;;;;;;5137608;27;20165;-69
2022/05/12 04:50:55;;;;;;;8.43;2.10;;;21.00;88.60;;;;;;5137244;27;20226;-70
2022/05/12 04:53:21;;;;;;;5.80;2.28;;;20.80;90.40;;;;;;5137651;27;20240;-70
2022/05/12 04:55:47;;;;;;;3.20;2.10;;;20.60;91.20;;;;;;5137000;27;20160;-70
2022/05/12 04:58:13;;;;;;;3.05;2.33;;;20.40;92.60;;;;;;5137581;27;20150;-69
2022/05/12 05:00:41;;;;;;;4.13;2.22;;;20.40;93.70;;;;;;5136983;27;20174;-69
2022/05/12 05:03:08;;;;;;;3.03;2.28;;;20.40;94.40;;;;;;5137792;27;20180;-69
2022/05/12 05:05:34;;;;;;;5.78;2.92;;;20.30;95.50;;;;;;5136490;27;20237;-69
2022/05/12 05:08:00;;;;;;;5.70;2.83;;;20.40;96.40;;;;;;5137296;27;20169;-69
2022/05/12 05:10:26;;;;;;;4.05;2.55;;;20.40;97.00;;;;;;5137037;27;20197;-68
2022/05/12 05:12:53;;;;;;;10.63;2.58;;;20.30;97.80;;;;;;5137001;27;20604;-70
2022/05/12 05:15:21;;;;;;;3.97;2.75;;;20.30;98.90;;;;;;5137442;27;20230;-69
2022/05/12 05:17:47;;;;;;;10.07;2.67;;;20.20;99.90;;;;;;5136905;27;20192;-67
2022/05/12 05:20:17;;;;;;;5.10;2.70;;;20.10;99.90;;;;;;5138171;27;20161;-71
2022/05/12 05:22:44;;;;;;;5.22;2.38;;;20.10;99.90;;;;;;5137207;27;20240;-70
2022/05/12 05:25:10;;;;;;;3.85;2.20;;;20.00;99.90;;;;;;5136708;27;20168;-68
2022/05/12 05:27:37;;;;;;;5.50;2.50;;;20.00;99.90;;;;;;5136585;27;20154;-69
2022/05/12 05:30:04;;;;;;;7.43;2.20;;;19.90;99.90;;;;;;5135225;27;20179;-71
2022/05/12 05:32:30;;;;;;;3.50;2.40;;;19.90;99.90;;;;;;5117782;27;20185;-70
2022/05/12 05:34:56;;;;;;;2.83;1.92;;;19.80;99.90;;;;;;5119010;27;20249;-70
2022/05/12 05:37:22;;;;;;;3.63;2.17;;;19.80;99.90;;;;;;5137429;27;20158;-70
2022/05/12 05:39:48;;;;;;;2.85;1.83;;;19.60;99.90;;;;;;5136590;27;20607;-70
2022/05/12 05:42:17;;;;;;;2.85;2.03;;;19.70;99.90;;;;;;5136629;27;20166;-68
2022/05/12 05:44:42;;;;;;;4.63;2.25;;;19.70;99.90;;;;;;5117940;27;20185;-71
2022/05/12 05:47:08;;;;;;;6.70;2.25;;;19.60;99.90;;;;;;5136565;27;20249;-70
2022/05/12 05:49:36;;;;;;;4.00;2.00;;;19.60;99.90;;;;;;5136860;27;20494;-68
2022/05/12 05:54:47;;;;;;;2.70;1.98;;;19.60;99.90;;;;;;5137003;27;20253;-71
2022/05/12 05:57:13;;;;;;;4.30;2.30;;;19.60;99.90;;;;;;5136679;27;20562;-70
2022/05/12 05:59:38;;;;;;;8.35;1.92;;;19.60;99.90;;;;;;5136318;27;20590;-70
2022/05/12 06:02:05;;;;;;;3.38;1.98;;;19.60;99.90;;;;;;5136557;27;20176;-69
2022/05/12 06:04:30;;;;;;;7.55;2.13;;;19.50;99.90;;;;;;5137132;27;20242;-70
2022/05/12 06:06:57;;;;;;;2.00;1.75;;;19.50;99.90;;;;;;5137377;27;20567;-70
2022/05/12 06:09:23;;;;;;;5.22;2.03;;;19.60;99.90;;;;;;5140525;27;20228;-69
2022/05/12 06:11:49;;;;;;;4.15;2.00;;;19.40;99.90;;;;;;5144132;27;20239;-70
2022/05/12 06:14:15;;;;;;;2.22;1.90;;;19.60;99.90;;;;;;5146305;27;20165;-71
2022/05/12 06:16:41;;;;;;;2.78;1.63;;;19.70;99.90;;;;;;5142992;27;20638;-70
2022/05/12 06:19:07;;;;;;;2.90;1.70;;;19.60;99.90;;;;;;5136285;27;20157;-69
2022/05/12 06:21:36;;;;;;;3.38;1.98;;;19.60;99.90;;;;;;5136325;27;20218;-70
2022/05/12 06:24:03;;;;;;;4.85;2.15;;;19.40;99.90;;;;;;5136206;27;20165;-68
2022/05/12 06:26:28;;;;;;;6.13;1.83;;;19.30;99.90;;;;;;5136674;27;20169;-68
2022/05/12 06:28:55;;;;;;;6.07;2.05;;;19.30;99.90;;;;;;5120975;27;20173;-70
2022/05/12 06:31:25;;;;;;;6.30;1.80;;;19.40;99.90;;;;;;5141211;27;20199;-70
2022/05/12 06:33:54;;;;;;;2.42;2.03;;;19.50;99.90;;;;;;5140094;27;20600;-68
2022/05/12 06:36:20;;;;;;;3.35;1.70;;;19.50;99.90;;;;;;5122398;27;20177;-69
2022/05/12 06:38:47;;;;;;;3.88;2.20;;;19.50;99.90;;;;;;5141245;27;20169;-69
2022/05/12 06:41:13;;;;;;;2.95;1.70;;;19.50;99.90;;;;;;5140361;27;20194;-71
2022/05/12 06:43:39;;;;;;;5.28;2.45;;;19.50;99.90;;;;;;5140420;27;20639;-69
2022/05/12 06:46:05;;;;;;;4.75;1.80;;;19.40;99.90;;;;;;5138280;27;20161;-68
2022/05/12 06:48:32;;;;;;;5.93;1.88;;;19.40;99.90;;;;;;5135457;27;20581;-70
2022/05/12 06:50:58;;;;;;;5.30;1.75;;;19.50;99.90;;;;;;5135138;27;20207;-70
2022/05/12 06:53:24;;;;;;;2.95;1.88;;;19.40;99.90;;;;;;5135514;27;20184;-69
2022/05/12 06:55:50;;;;;;;6.72;1.90;;;19.50;99.90;;;;;;5116548;27;20251;-69
2022/05/12 06:58:17;;;;;;;3.75;1.40;;;19.60;99.90;;;;;;5135401;27;20162;-67
2022/05/12 07:00:43;;;;;;;1.40;1.23;;;19.70;99.90;;;;;;5135406;27;20631;-69
2022/05/12 07:03:12;;;;;;;2.25;1.17;;;19.70;99.90;;;;;;5135812;27;20182;-67
2022/05/12 07:05:39;;;;;;;4.63;1.35;;;19.70;99.90;;;;;;5136276;27;20217;-67
2022/05/12 07:08:06;;;;;;;0.90;0.90;;;19.70;99.90;;;;;;5141302;27;20153;-67
2022/05/12 07:10:32;;;;;;;1.27;0.90;;;19.90;99.90;;;;;;5148698;27;20185;-67
2022/05/12 07:12:58;;;;;;;2.88;1.00;;;20.10;99.90;;;;;;5138710;27;20176;-69
2022/05/12 07:15:27;;;;;;;3.10;1.40;;;20.00;99.40;;;;;;5135138;27;20491;-69
2022/05/12 07:17:55;;;;;;;2.10;1.10;;;19.70;99.90;;;;;;5133952;27;20218;-68
2022/05/12 07:28:36;;;;;;;2.15;1.30;;;19.80;99.90;;;;;;5134555;27;20188;-70
2022/05/12 07:31:03;;;;;;;2.47;1.23;;;19.70;99.90;;;;;;5134941;27;20190;-68
2022/05/12 07:33:39;;;;;;;2.53;1.25;;;19.60;99.90;;;;;;5135366;27;20173;-69
2022/05/12 07:36:10;;;;;;;5.10;1.27;;;19.60;99.90;;;;;;5135200;27;20157;-69
2022/05/12 07:38:36;;;;;;;5.45;1.50;;;19.70;99.90;;;;;;5136424;27;20175;-68
2022/05/12 07:41:02;;;;;;;4.63;1.23;;;19.90;99.90;;;;;;5136059;27;20187;-66
2022/05/12 07:43:27;;;;;;;6.80;1.60;;;20.00;99.90;;;;;;5118596;27;20177;-69
2022/05/12 07:45:54;;;;;;;1.67;1.40;;;20.20;99.90;;;;;;5118675;28;20184;-68
2022/05/12 07:48:19;;;;;;;2.00;1.30;;;20.30;99.80;;;;;;5118601;28;20177;-68
2022/05/12 07:50:46;;;;;;;4.32;1.27;;;20.60;99.80;;;;;;5135547;28;20196;-70
2022/05/12 07:53:11;;;;;;;2.88;1.20;;;21.00;97.50;;;;;;5137978;27;20169;-70
2022/05/12 07:55:37;;;;;;;4.78;1.20;;;21.20;96.30;;;;;;5139003;27;20585;-70
2022/05/12 07:58:04;;;;;;;1.83;1.20;;;20.70;96.10;;;;;;5120075;27;20554;-68
2022/05/12 08:00:31;;;;;;;5.75;1.20;;;20.70;96.10;;;;;;5139559;27;20181;-68
2022/05/12 08:02:57;;;;;;;2.72;1.00;;;20.70;95.90;;;;;;5139115;27;20573;-69
2022/05/12 08:05:24;;;;;;;7.82;1.30;;;20.90;95.50;;;;;;5141142;27;20231;-69
2022/05/12 08:07:51;;;;;;;3.47;1.10;;;20.90;95.20;;;;;;5144009;27;20166;-70
2022/05/12 08:10:17;;;;;;;0.85;0.80;;;20.40;94.40;;;;;;5127704;27;20189;-68
2022/05/12 08:12:43;;;;;;;2.45;1.05;;;20.30;94.30;;;;;;5142918;27;20597;-70
2022/05/12 08:15:12;;;;;;;1.63;1.08;;;20.30;94.30;;;;;;5144631;27;20165;-67
2022/05/12 08:17:37;;;;;;;2.30;1.10;;;20.50;94.10;;;;;;5149749;27;20168;-67
2022/05/12 08:20:08;;;;;;;5.28;1.27;;;20.70;93.60;;;;;;5143084;27;20166;-69
2022/05/12 08:22:33;;;;;;;1.42;1.00;;;20.60;92.90;;;;;;5150985;27;20604;-67
2022/05/12 08:24:59;;;;;;;6.40;1.20;;;20.90;92.80;;;;;;5143187;27;20184;-69
2022/05/12 08:27:25;;;;;;;4.80;0.98;;;20.80;92.30;;;;;;5142673;27;20158;-68
2022/05/12 08:29:54;;;;;;;5.28;1.17;;;20.90;92.10;;;;;;5144032;27;20166;-70
2022/05/12 08:32:20;;;;;;;1.90;1.00;;;20.80;92.50;;;;;;5143728;27;20188;-70
2022/05/12 08:34:45;;;;;;;3.38;1.20;;;20.80;92.20;;;;;;5138919;27;20565;-70
2022/05/12 08:37:12;;;;;;;3.45;2.42;;;20.90;91.80;;;;;;5119869;27;20165;-70
2022/05/12 08:39:38;;;;;;;8.52;2.22;;;21.20;91.40;;;;;;5137551;27;20149;-70
2022/05/12 08:42:20;;;;;;;7.32;2.70;;;21.10;91.10;;;;;;5137551;27;20264;-70
2022/05/12 08:44:46;;;;;;;3.00;1.92;;;21.20;90.20;;;;;;5138144;27;20190;-69
2022/05/12 08:47:18;;;;;;;2.40;1.90;;;21.40;88.40;;;;;;5137534;27;20169;-70
2022/05/12 08:49:50;;;;;;;2.40;1.60;;;21.30;87.70;;;;;;5137622;27;20177;-70
2022/05/12 08:52:42;;;;;;;5.18;1.30;;;21.20;86.70;;;;;;5137814;27;20185;-70
2022/05/12 08:55:29;;;;;;;4.82;1.10;;;21.20;85.60;;;;;;5137708;27;20200;-67
2022/05/12 08:58:17;;;;;;;1.45;1.30;;;21.20;86.10;;;;;;5137478;27;20515;-67
2022/05/12 09:01:03;;;;;;;1.58;1.20;;;21.30;85.20;;;;;;5119063;27;20191;-69
2022/05/12 09:03:47;;;;;;;6.30;1.52;;;21.30;85.10;;;;;;5136945;27;20201;-71
2022/05/12 09:06:39;;;;;;;1.27;1.05;;;20.90;85.70;;;;;;5137582;27;20649;-70
2022/05/12 09:09:21;;;;;;;1.70;1.17;;;21.10;86.70;;;;;;5137148;27;20252;-69
2022/05/12 09:12:24;;;;;;;5.22;1.20;;;21.20;85.70;;;;;;5137115;27;20712;-68
2022/05/12 09:15:09;;;;;;;5.28;1.33;;;21.20;85.20;;;;;;5137221;27;20550;-70
2022/05/12 09:17:41;;;;;;;3.42;1.23;;;21.50;84.60;;;;;;5153650;27;20217;-69
2022/05/12 09:20:09;;;;;;;2.25;1.20;;;21.60;83.90;;;;;;5136730;27;20158;-69
2022/05/12 09:22:37;;;;;;;2.50;1.27;;;21.70;83.30;;;;;;5137203;27;20153;-69
2022/05/12 09:25:04;;;;;;;2.30;1.17;;;21.50;82.00;;;;;;5137038;27;20511;-70
2022/05/12 09:27:33;;;;;;;2.85;1.27;;;21.70;80.90;;;;;;5137326;27;20512;-67
2022/05/12 09:30:00;;;;;;;4.63;2.30;;;21.80;78.80;;;;;;5137165;27;20157;-71
2022/05/12 09:32:34;;;;;;;4.65;1.35;;;21.00;79.70;;;;;;5138282;27;20183;-69
2022/05/12 09:35:12;;;;;;;8.52;1.35;;;21.40;78.10;;;;;;5136570;27;20500;-70
2022/05/12 09:37:41;;;;;;;1.52;1.20;;;21.60;76.60;;;;;;5137248;27;20482;-70
2022/05/12 09:40:37;;;;;;;5.57;1.30;;;21.70;76.50;;;;;;5137226;27;20193;-69
2022/05/12 09:43:31;;;;;;;1.80;1.08;;;21.80;70.70;;;;;;5136775;27;20585;-69
2022/05/12 09:46:17;;;;;;;2.75;1.00;;;22.20;68.20;;;;;;5136696;27;20157;-69
2022/05/12 09:48:45;;;;;;;5.07;1.05;;;22.20;64.20;;;;;;5136519;27;20168;-71
2022/05/12 09:51:30;;;;;;;2.08;1.30;;;22.20;62.10;;;;;;5117951;27;20653;-70
2022/05/12 09:54:13;;;;;;;0.85;0.82;;;22.10;62.20;;;;;;5137558;27;20169;-68
2022/05/12 09:56:40;;;;;;;4.47;1.20;;;22.00;60.80;;;;;;5120027;27;20490;-69
2022/05/12 09:59:15;;;;;;;2.00;1.00;;;22.00;60.10;;;;;;5152531;27;20185;-71
2022/05/12 10:02:00;;;;;;;6.13;1.17;;;22.10;60.40;;;;;;5141678;27;20255;-69
2022/05/12 10:10:18;;;;;;;1.10;1.00;;;22.10;63.00;;;;;;5141948;27;20604;-69
2022/05/12 10:12:57;;;;;;;1.65;1.20;;;22.10;62.30;;;;;;5144200;27;20173;-67
2022/05/12 10:15:28;;;;;;;3.00;0.95;;;22.00;61.80;;;;;;5138345;27;20149;-69
2022/05/12 10:18:08;;;;;;;1.90;1.20;;;22.30;62.00;;;;;;5135533;27;20517;-71
2022/05/12 10:20:38;;;;;;;1.63;1.20;;;22.50;60.90;;;;;;5135531;27;20184;-69
2022/05/12 10:23:22;;;;;;;2.13;1.10;;;22.50;61.30;;;;;;5136204;27;20256;-69
2022/05/12 10:26:07;;;;;;;2.58;1.15;;;22.70;60.70;;;;;;5136271;27;20244;-69
2022/05/12 10:29:00;;;;;;;3.10;1.23;;;22.50;61.10;;;;;;5136894;27;20161;-70
2022/05/12 10:31:37;;;;;;;1.95;1.42;;;22.30;60.80;;;;;;5122610;27;20204;-71
2022/05/12 10:34:41;;;;;;;3.53;1.00;;;22.60;60.60;;;;;;5136714;27;20213;-68
2022/05/12 10:37:21;;;;;;;2.35;1.35;;;22.20;61.00;;;;;;5139196;27;20237;-69
2022/05/12 10:40:07;;;;;;;3.80;1.20;;;22.40;61.50;;;;;;5137889;27;20169;-71
2022/05/12 10:42:36;;;;;;;2.10;1.02;;;22.60;61.00;;;;;;5135395;27;20535;-71
2022/05/12 10:45:19;;;;;;;2.55;1.20;;;22.80;61.20;;;;;;5135177;27;20189;-72
2022/05/12 10:48:20;;;;;;;3.53;1.30;;;22.50;60.70;;;;;;5135431;27;20499;-70
2022/05/12 10:50:55;;;;;;;2.03;1.00;;;23.00;61.20;;;;;;5105960;27;20265;-70
2022/05/12 10:53:33;;;;;;;1.08;0.98;;;23.00;59.90;;;;;;5136240;27;20437;-71
2022/05/12 10:56:08;;;;;;;2.88;1.00;;;22.90;59.90;;;;;;5135498;27;20590;-72
2022/05/12 10:59:10;;;;;;;1.92;1.05;;;22.70;59.00;;;;;;5134948;27;20146;-68
2022/05/12 11:01:42;;;;;;;5.78;1.45;;;22.90;59.50;;;;;;5134918;27;20616;-71
2022/05/12 11:04:19;;;;;;;1.40;1.30;;;22.70;59.60;;;;;;5135198;27;20637;-70
2022/05/12 11:06:49;;;;;;;5.63;1.20;;;22.60;60.50;;;;;;5135039;27;20250;-71
2022/05/12 11:09:30;;;;;;;1.08;0.90;;;23.10;61.70;;;;;;5135196;27;20242;-71
2022/05/12 11:12:05;;;;;;;1.88;1.20;;;23.30;60.20;;;;;;5134591;27;20316;-69
2022/05/12 11:14:40;;;;;;;1.33;1.10;;;22.80;59.40;;;;;;5134236;27;20157;-72
2022/05/12 11:17:09;;;;;;;1.83;1.23;;;22.50;61.30;;;;;;5134580;27;20165;-69
2022/05/12 11:19:36;;;;;;;1.52;1.08;;;22.50;59.60;;;;;;5134796;27;20158;-70
2022/05/12 11:22:31;;;;;;;1.58;1.17;;;22.80;60.00;;;;;;5134625;27;20245;-70
2022/05/12 11:25:22;;;;;;;2.55;1.23;;;23.10;60.00;;;;;;5125908;27;20210;-72
2022/05/12 11:29:41;;;;;;;3.47;1.30;;;23.10;59.50;;;;;;5116255;27;20232;-73
2022/05/12 11:30:52;;;;;;;1.60;1.20;;;23.00;59.90;;;;;;5133915;27;20227;-70
2022/05/12 11:33:32;;;;;;;3.03;1.20;;;22.80;59.70;;;;;;5134716;27;20174;-68
2022/05/12 11:35:58;;;;;;;2.10;1.20;;;22.90;59.60;;;;;;5134387;27;20551;-73
2022/05/12 11:38:42;;;;;;;3.00;1.25;;;23.10;60.10;;;;;;5134913;27;20218;-71
2022/05/12 11:41:20;;;;;;;1.92;1.00;;;22.90;60.20;;;;;;5135055;27;20168;-70
2022/05/12 11:46:56;;;;;;;2.03;1.25;;;23.30;60.20;;;;;;5136887;27;20269;-71
2022/05/12 11:49:42;;;;;;;1.90;1.10;;;23.30;60.10;;;;;;5138985;28;20161;-70
2022/05/12 11:52:39;;;;;;;1.65;1.33;;;22.80;60.60;;;;;;5122800;28;20496;-70
2022/05/12 11:55:20;;;;;;;1.30;1.20;;;23.50;61.00;;;;;;5137033;28;20643;-70
2022/05/12 11:58:07;;;;;;;2.78;1.42;;;23.10;61.00;;;;;;5136991;28;20248;-70
2022/05/12 12:00:35;;;;;;;3.30;1.30;;;23.60;61.50;;;;;;5136480;28;20169;-71
2022/05/12 12:03:27;;;;;;;0.90;0.90;;;23.70;60.30;;;;;;5136048;28;20314;-69
2022/05/12 12:05:53;;;;;;;4.30;1.23;;;23.60;59.60;;;;;;5132196;27;20233;-70
2022/05/12 12:08:30;;;;;;;2.38;1.00;;;23.70;59.30;;;;;;5136715;28;20157;-70
2022/05/12 12:11:14;;;;;;;4.32;2.38;;;23.10;58.90;;;;;;5137330;28;20245;-68
2022/05/12 12:13:48;;;;;;;2.13;1.35;;;22.80;59.70;;;;;;5139610;28;20248;-70
2022/05/12 12:16:19;;;;;;;1.42;1.20;;;23.10;60.60;;;;;;5138870;28;20166;-71
2022/05/12 12:18:52;;;;;;;3.88;2.38;;;23.40;60.20;;;;;;5136251;28;20153;-70
2022/05/12 12:21:30;;;;;;;3.08;1.15;;;23.50;59.50;;;;;;5116316;28;20516;-69
2022/05/12 12:24:19;;;;;;;2.55;1.15;;;23.50;58.50;;;;;;5134428;28;20169;-70
2022/05/12 12:26:50;;;;;;;1.85;1.38;;;23.40;58.80;;;;;;5115973;28;20173;-71
2022/05/12 12:29:21;;;;;;;1.90;1.35;;;23.40;59.50;;;;;;5134012;28;20173;-71
2022/05/12 12:31:49;;;;;;;2.92;1.00;;;23.50;59.30;;;;;;5134272;28;20255;-71
2022/05/12 12:34:19;;;;;;;2.63;0.93;;;23.90;59.60;;;;;;5134265;28;20162;-70
2022/05/12 12:36:48;;;;;;;5.18;1.20;;;24.20;59.10;;;;;;5134666;28;20165;-71
2022/05/12 12:39:39;;;;;;;3.00;1.42;;;24.20;58.40;;;;;;5136553;27;20149;-69
2022/05/12 12:42:20;;;;;;;3.72;1.50;;;23.70;57.90;;;;;;5131167;27;20197;-70
2022/05/12 12:44:53;;;;;;;3.13;1.10;;;23.60;58.00;;;;;;5139209;27;20158;-72
2022/05/12 12:47:24;;;;;;;2.45;1.40;;;24.00;57.80;;;;;;5152735;27;20181;-71
2022/05/12 12:50:12;;;;;;;3.78;1.15;;;24.00;56.80;;;;;;5129855;27;20663;-70
2022/05/12 12:52:43;;;;;;;2.88;1.40;;;23.70;58.00;;;;;;5163181;27;20207;-70
2022/05/12 12:58:11;;;;;;;1.67;1.05;;;23.40;57.80;;;;;;5151675;27;20231;-72
2022/05/12 13:00:38;;;;;;;1.52;1.08;;;23.80;56.80;;;;;;5126706;27;20574;-71
2022/05/12 13:03:17;;;;;;;2.88;1.20;;;23.40;57.00;;;;;;5138062;27;20605;-72
2022/05/12 13:05:43;;;;;;;3.13;1.30;;;23.30;57.10;;;;;;5138008;27;20303;-71
2022/05/12 13:08:30;;;;;;;1.25;1.13;;;23.60;56.50;;;;;;5137940;27;20632;-71
2022/05/12 13:11:00;;;;;;;1.95;1.70;;;24.00;57.50;;;;;;5137748;27;20181;-70
2022/05/12 13:13:27;;;;;;;1.67;1.10;;;24.40;55.80;;;;;;5138155;27;20197;-71
2022/05/12 13:16:04;;;;;;;1.50;1.15;;;23.70;55.20;;;;;;5137578;27;20150;-70
2022/05/12 13:18:31;;;;;;;3.08;1.40;;;23.60;54.60;;;;;;5136966;27;20644;-72
2022/05/12 13:20:58;;;;;;;4.03;2.58;;;23.40;55.40;;;;;;5137495;27;20157;-70
2022/05/12 13:23:26;;;;;;;1.60;1.25;;;24.10;56.20;;;;;;5137324;27;20241;-68
2022/05/12 13:25:53;;;;;;;5.82;1.40;;;24.20;53.80;;;;;;5137488;27;20165;-70
2022/05/12 13:28:23;;;;;;;3.15;1.10;;;24.00;54.00;;;;;;5132849;27;20194;-71